createdAt,value
2023-05-11T00:00:53.379Z,22.35
2023-05-11T00:03:20.158Z,23.25
2023-05-11T00:05:49.791Z,24.75
2023-05-11T00:08:17.279Z,23.30
2023-05-11T00:10:48.233Z,28.08
2023-05-11T00:13:15.008Z,21.38
2023-05-11T00:15:42.018Z,22.58
2023-05-11T00:18:09.066Z,23.55
2023-05-11T00:20:36.268Z,26.52
2023-05-11T00:23:03.008Z,28.55
2023-05-11T00:25:29.637Z,24.52
2023-05-11T00:27:56.375Z,24.75
2023-05-11T00:30:23.255Z,25.95
2023-05-11T00:32:51.968Z,21.05
2023-05-11T00:35:19.071Z,24.55
2023-05-11T00:37:45.805Z,25.45
2023-05-11T00:40:12.967Z,24.48
2023-05-11T00:42:39.698Z,26.08
2023-05-11T00:45:07.173Z,32.67
2023-05-11T00:47:33.945Z,24.13
2023-05-11T00:50:01.359Z,26.25
2023-05-11T00:52:28.168Z,27.60
2023-05-11T00:54:55.518Z,26.67
2023-05-11T00:57:22.296Z,27.40
2023-05-11T00:59:49.746Z,28.15
2023-05-11T01:02:20.027Z,26.63
2023-05-11T01:04:47.265Z,26.33
2023-05-11T01:07:26.018Z,26.13
2023-05-11T01:10:06.129Z,30.40
2023-05-11T01:13:13.879Z,28.60
2023-05-11T01:15:49.375Z,26.38
2023-05-11T01:18:27.158Z,25.13
2023-05-11T01:20:59.854Z,23.58
2023-05-11T01:24:01.369Z,28.73
2023-05-11T01:26:47.202Z,27.33
2023-05-11T01:29:42.972Z,27.58
2023-05-11T01:32:33.765Z,29.70
2023-05-11T01:35:13.553Z,24.92
2023-05-11T01:37:46.199Z,30.02
2023-05-11T01:40:17.231Z,28.98
2023-05-11T01:42:54.553Z,28.05
2023-05-11T01:45:25.711Z,27.13
2023-05-11T01:47:55.194Z,29.67
2023-05-11T01:50:24.364Z,22.38
2023-05-11T01:52:52.665Z,29.38
2023-05-11T01:55:22.027Z,27.23
2023-05-11T01:57:52.940Z,29.73
2023-05-11T02:00:20.859Z,27.13
2023-05-11T02:02:49.260Z,26.35
2023-05-11T02:05:20.644Z,30.85
2023-05-11T02:07:50.461Z,25.67
2023-05-11T02:10:18.730Z,24.95
2023-05-11T02:12:47.441Z,29.65
2023-05-11T02:15:16.152Z,26.98
2023-05-11T02:17:44.070Z,27.55
2023-05-11T02:20:11.810Z,24.33
2023-05-11T02:22:39.635Z,28.70
2023-05-11T02:25:08.615Z,32.63
2023-05-11T02:27:36.141Z,27.27
2023-05-11T02:30:08.228Z,29.23
2023-05-11T02:32:41.863Z,27.55
2023-05-11T02:35:24.034Z,27.42
2023-05-11T02:40:28.004Z,29.50
2023-05-11T02:43:00.395Z,25.85
2023-05-11T02:45:33.338Z,27.40
2023-05-11T02:48:05.282Z,24.70
2023-05-11T02:50:37.249Z,28.05
2023-05-11T02:53:10.405Z,30.70
2023-05-11T02:58:04.253Z,21.90
2023-05-11T03:00:31.317Z,26.63
2023-05-11T03:02:59.323Z,27.70
2023-05-11T03:05:26.844Z,31.75
2023-05-11T03:07:57.273Z,31.45
2023-05-11T03:10:29.317Z,32.45
2023-05-11T03:12:57.251Z,31.00
2023-05-11T03:15:25.136Z,30.38
2023-05-11T03:17:54.006Z,31.50
2023-05-11T03:20:23.556Z,31.63
2023-05-11T03:22:52.288Z,33.10
2023-05-11T03:25:21.649Z,31.83
2023-05-11T03:27:51.190Z,28.45
2023-05-11T03:30:20.060Z,33.25
2023-05-11T03:32:50.379Z,32.65
2023-05-11T03:35:17.453Z,31.38
2023-05-11T03:37:45.802Z,33.35
2023-05-11T03:40:16.690Z,35.40
2023-05-11T03:42:54.411Z,29.85
2023-05-11T03:45:22.944Z,35.03
2023-05-11T03:47:51.264Z,29.02
2023-05-11T03:50:19.554Z,31.58
2023-05-11T03:52:47.757Z,30.23
2023-05-11T03:55:14.423Z,33.22
2023-05-11T03:57:41.115Z,36.08
2023-05-11T04:00:10.464Z,29.23
2023-05-11T04:02:42.589Z,30.15
2023-05-11T04:05:12.367Z,30.13
2023-05-11T04:07:40.063Z,33.10
2023-05-11T04:10:08.486Z,27.55
2023-05-11T04:12:35.771Z,30.98
2023-05-11T04:15:02.573Z,29.80
2023-05-11T04:17:29.396Z,27.92
2023-05-11T04:19:56.180Z,29.85
2023-05-11T04:22:23.438Z,25.25
2023-05-11T04:24:50.153Z,29.75
2023-05-11T04:27:16.896Z,30.65
2023-05-11T04:29:44.944Z,27.27
2023-05-11T04:32:11.792Z,28.23
2023-05-11T04:34:39.084Z,30.10
2023-05-11T04:37:07.489Z,28.00
2023-05-11T04:39:35.582Z,28.98
2023-05-11T04:42:02.710Z,26.65
2023-05-11T04:44:30.181Z,28.63
2023-05-11T04:46:57.482Z,29.17
2023-05-11T04:49:24.336Z,27.85
2023-05-11T04:51:52.256Z,27.20
2023-05-11T04:54:19.055Z,27.48
2023-05-11T04:56:46.011Z,30.90
2023-05-11T04:59:14.386Z,26.25
2023-05-11T05:01:41.098Z,26.85
2023-05-11T05:04:08.737Z,29.75
2023-05-11T05:06:35.600Z,26.88
2023-05-11T05:09:03.291Z,25.52
2023-05-11T05:11:30.055Z,26.38
2023-05-11T05:13:56.875Z,24.70
2023-05-11T05:16:23.669Z,28.15
2023-05-11T05:18:50.591Z,31.65
2023-05-11T05:21:17.359Z,28.30
2023-05-11T05:23:45.070Z,25.23
2023-05-11T05:26:13.322Z,26.42
2023-05-11T05:28:41.088Z,29.50
2023-05-11T05:31:08.596Z,28.88
2023-05-11T05:33:35.503Z,29.27
2023-05-11T05:36:02.594Z,26.58
2023-05-11T05:38:29.438Z,27.65
2023-05-11T05:40:57.370Z,28.42
2023-05-11T05:43:25.983Z,25.98
2023-05-11T05:45:53.188Z,29.77
2023-05-11T05:48:20.148Z,28.27
2023-05-11T05:50:47.176Z,28.42
2023-05-11T05:53:14.284Z,26.83
2023-05-11T05:55:41.077Z,27.92
2023-05-11T05:58:08.810Z,24.98
2023-05-11T06:00:36.445Z,27.00
2023-05-11T06:03:06.905Z,26.88
2023-05-11T06:05:33.892Z,25.15
2023-05-11T06:08:10.102Z,26.33
2023-05-11T06:10:38.861Z,27.42
2023-05-11T06:13:07.428Z,26.05
2023-05-11T06:15:34.887Z,24.13
2023-05-11T06:18:08.935Z,24.17
2023-05-11T06:20:36.166Z,26.23
2023-05-11T06:23:05.318Z,27.02
2023-05-11T06:25:39.028Z,28.38
2023-05-11T06:28:06.884Z,28.38
2023-05-11T06:30:35.385Z,26.60
2023-05-11T06:33:02.625Z,29.00
2023-05-11T06:35:30.249Z,24.25
2023-05-11T06:37:57.503Z,29.13
2023-05-11T06:40:25.392Z,24.05
2023-05-11T06:42:52.511Z,26.50
2023-05-11T06:45:19.375Z,25.85
2023-05-11T06:47:46.694Z,24.98
2023-05-11T06:50:13.467Z,23.42
2023-05-11T06:52:40.289Z,24.83
2023-05-11T06:55:07.540Z,24.63
2023-05-11T06:57:34.347Z,23.00
2023-05-11T07:00:01.088Z,23.33
2023-05-11T07:02:27.987Z,21.65
2023-05-11T07:04:54.788Z,21.52
2023-05-11T07:07:22.681Z,22.15
2023-05-11T07:09:49.531Z,18.55
2023-05-11T07:12:16.494Z,16.63
2023-05-11T07:14:43.219Z,19.40
2023-05-11T07:17:10.047Z,19.00
2023-05-11T07:19:38.286Z,19.48
2023-05-11T07:22:05.876Z,17.95
2023-05-11T07:24:32.700Z,16.98
2023-05-11T07:26:59.449Z,19.27
2023-05-11T07:29:26.122Z,17.45
2023-05-11T07:31:52.893Z,18.02
2023-05-11T07:34:19.856Z,19.85
2023-05-11T07:36:46.804Z,18.85
2023-05-11T07:39:16.149Z,15.88
2023-05-11T07:41:43.222Z,18.35
2023-05-11T07:44:10.182Z,17.73
2023-05-11T07:46:37.043Z,19.77
2023-05-11T07:49:15.709Z,16.70
2023-05-11T07:51:47.776Z,15.95
2023-05-11T07:54:14.577Z,16.95
2023-05-11T07:56:41.865Z,18.60
2023-05-11T07:59:08.806Z,16.25
2023-05-11T08:01:35.876Z,15.55
2023-05-11T08:04:05.881Z,16.33
2023-05-11T08:06:32.977Z,16.95
2023-05-11T08:08:59.860Z,18.30
2023-05-11T08:11:27.492Z,16.80
2023-05-11T08:13:54.409Z,15.15
2023-05-11T08:16:21.185Z,17.50
2023-05-11T08:18:48.015Z,18.35
2023-05-11T08:21:14.788Z,18.45
2023-05-11T08:23:42.915Z,17.27
2023-05-11T08:26:11.400Z,16.48
2023-05-11T08:28:38.100Z,18.38
2023-05-11T08:31:05.639Z,18.05
2023-05-11T08:33:37.978Z,17.25
2023-05-11T08:36:06.826Z,19.35
2023-05-11T08:38:35.309Z,17.25
2023-05-11T08:41:02.932Z,19.00
2023-05-11T08:43:32.283Z,18.05
2023-05-11T08:46:04.310Z,16.63
2023-05-11T08:48:31.861Z,19.40
2023-05-11T08:50:59.682Z,21.23
2023-05-11T08:53:26.600Z,18.00
2023-05-11T08:55:57.889Z,15.65
2023-05-11T08:58:25.594Z,16.05
2023-05-11T09:00:52.432Z,15.98
2023-05-11T09:03:19.800Z,20.23
2023-05-11T09:05:47.508Z,14.70
2023-05-11T09:08:15.649Z,11.95
2023-05-11T09:10:44.286Z,15.60
2023-05-11T09:13:11.480Z,15.52
2023-05-11T09:15:38.587Z,14.68
2023-05-11T09:18:05.826Z,16.90
2023-05-11T09:20:34.766Z,11.10
2023-05-11T09:23:01.913Z,12.27
2023-05-11T09:25:33.507Z,14.38
2023-05-11T09:28:00.727Z,14.33
2023-05-11T09:30:28.511Z,12.18
2023-05-11T09:32:57.621Z,12.75
2023-05-11T09:35:29.090Z,13.05
2023-05-11T09:38:10.153Z,11.82
2023-05-11T09:40:37.594Z,9.82
2023-05-11T09:43:19.013Z,12.50
2023-05-11T09:45:47.786Z,9.90
2023-05-11T09:48:26.104Z,10.68
2023-05-11T09:51:03.401Z,11.68
2023-05-11T09:53:45.815Z,11.48
2023-05-11T09:58:57.773Z,10.27
2023-05-11T10:01:32.682Z,12.40
2023-05-11T10:04:21.511Z,11.00
2023-05-11T10:06:53.414Z,10.93
2023-05-11T10:09:25.444Z,11.95
2023-05-11T10:11:53.582Z,10.50
2023-05-11T10:14:21.875Z,9.70
2023-05-11T10:16:48.635Z,10.02
2023-05-11T10:19:16.481Z,9.75
2023-05-11T10:21:44.002Z,9.40
2023-05-11T10:24:11.293Z,10.32
2023-05-11T10:26:38.696Z,10.45
2023-05-11T10:29:05.832Z,9.95
2023-05-11T10:31:33.350Z,9.48
2023-05-11T10:34:01.598Z,10.60
2023-05-11T10:36:28.562Z,10.25
2023-05-11T10:38:55.347Z,12.23
2023-05-11T10:41:22.242Z,13.45
2023-05-11T10:43:52.397Z,10.77
2023-05-11T10:46:52.494Z,10.98
2023-05-11T10:49:45.756Z,13.07
2023-05-11T10:52:24.463Z,12.25
2023-05-11T10:55:13.408Z,11.80
2023-05-11T10:58:19.473Z,11.10
2023-05-11T11:01:06.192Z,11.60
2023-05-11T11:03:33.001Z,11.50
2023-05-11T11:06:00.879Z,14.15
2023-05-11T11:08:28.577Z,15.18
2023-05-11T11:10:56.214Z,10.15
2023-05-11T11:13:24.323Z,11.93
2023-05-11T11:15:54.616Z,14.50
2023-05-11T11:18:30.215Z,14.32
2023-05-11T11:20:59.052Z,13.10
2023-05-11T11:23:42.273Z,10.80
2023-05-11T11:26:11.008Z,11.93
2023-05-11T11:29:00.708Z,12.27
2023-05-11T11:31:32.702Z,12.07
2023-05-11T11:34:19.156Z,9.85
2023-05-11T11:36:54.810Z,14.50
2023-05-11T11:39:43.145Z,11.77
2023-05-11T11:42:11.310Z,13.85
2023-05-11T11:44:39.284Z,14.02
2023-05-11T11:47:16.951Z,13.55
2023-05-11T11:49:46.406Z,13.60
2023-05-11T11:52:26.368Z,16.25
2023-05-11T11:54:53.226Z,16.42
2023-05-11T11:57:34.990Z,16.77
2023-05-11T12:00:07.390Z,17.27
2023-05-11T12:02:42.057Z,17.05
2023-05-11T12:05:15.010Z,16.70
2023-05-11T12:07:43.578Z,17.50
2023-05-11T12:10:13.477Z,17.88
2023-05-11T12:12:40.941Z,17.90
2023-05-11T12:15:08.150Z,16.63
2023-05-11T12:17:38.600Z,15.10
2023-05-11T12:20:14.231Z,13.80
2023-05-11T12:22:41.562Z,11.57
2023-05-11T12:25:11.214Z,11.32
2023-05-11T12:27:47.627Z,9.70
2023-05-11T12:30:34.666Z,11.88
2023-05-11T12:33:04.151Z,14.13
2023-05-11T12:35:33.477Z,10.80
2023-05-11T12:38:02.620Z,11.85
2023-05-11T12:40:30.817Z,12.13
2023-05-11T12:42:59.509Z,9.63
2023-05-11T12:45:27.452Z,9.88
2023-05-11T12:47:56.174Z,10.65
2023-05-11T12:50:23.290Z,9.25
2023-05-11T12:52:50.743Z,9.43
2023-05-11T12:55:28.672Z,11.35
2023-05-11T12:58:14.414Z,11.18
2023-05-11T13:00:55.218Z,10.02
2023-05-11T13:03:27.430Z,9.23
2023-05-11T13:08:44.045Z,8.90
2023-05-11T13:11:17.351Z,6.63
2023-05-11T13:13:44.723Z,6.53
2023-05-11T13:16:11.949Z,5.65
2023-05-11T13:18:38.770Z,7.45
2023-05-11T13:21:09.446Z,6.85
2023-05-11T13:23:36.962Z,6.22
2023-05-11T13:26:03.684Z,6.65
2023-05-11T13:28:30.568Z,7.15
2023-05-11T13:31:02.294Z,6.95
2023-05-11T13:33:29.259Z,7.25
2023-05-11T13:35:56.014Z,8.27
2023-05-11T13:38:23.084Z,5.50
2023-05-11T13:40:49.864Z,6.22
2023-05-11T13:43:16.643Z,5.75
2023-05-11T13:45:43.355Z,4.72
2023-05-11T13:48:10.887Z,4.63
2023-05-11T13:50:37.879Z,4.82
2023-05-11T13:53:04.785Z,6.10
2023-05-11T13:55:31.603Z,8.30
2023-05-11T13:57:58.449Z,7.38
2023-05-11T14:00:25.280Z,7.30
2023-05-11T14:02:52.517Z,5.40
2023-05-11T14:05:19.689Z,6.03
2023-05-11T14:07:48.189Z,5.72
2023-05-11T14:10:16.941Z,6.05
2023-05-11T14:12:43.801Z,5.82
2023-05-11T14:15:11.282Z,5.15
2023-05-11T14:17:38.340Z,4.28
2023-05-11T14:20:06.013Z,5.45
2023-05-11T14:22:32.928Z,6.10
2023-05-11T14:24:59.995Z,4.68
2023-05-11T14:27:26.760Z,5.30
2023-05-11T14:29:54.942Z,6.22
2023-05-11T14:32:21.682Z,4.97
2023-05-11T14:34:48.653Z,5.70
2023-05-11T14:37:15.426Z,4.00
2023-05-11T14:39:42.440Z,3.78
2023-05-11T14:42:09.771Z,4.00
2023-05-11T14:44:36.446Z,3.10
2023-05-11T14:47:03.345Z,2.40
2023-05-11T14:49:30.060Z,3.00
2023-05-11T14:51:57.738Z,2.83
2023-05-11T14:54:24.621Z,3.78
2023-05-11T14:56:54.198Z,2.42
2023-05-11T14:59:21.739Z,3.35
2023-05-11T15:01:49.531Z,2.90
2023-05-11T15:04:16.967Z,3.08
2023-05-11T15:06:44.164Z,3.22
2023-05-11T15:09:11.058Z,5.88
2023-05-11T15:11:37.808Z,3.38
2023-05-11T15:14:06.393Z,2.45
2023-05-11T15:16:33.191Z,2.28
2023-05-11T15:19:00.100Z,3.38
2023-05-11T15:21:27.467Z,4.20
2023-05-11T15:23:54.278Z,3.10
2023-05-11T15:26:22.195Z,1.85
2023-05-11T15:28:49.249Z,2.42
2023-05-11T15:31:16.190Z,2.25
2023-05-11T15:33:43.490Z,1.73
2023-05-11T15:36:14.296Z,2.75
2023-05-11T15:38:42.504Z,2.13
2023-05-11T15:41:09.531Z,3.95
2023-05-11T15:43:36.307Z,4.20
2023-05-11T15:46:07.145Z,4.30
2023-05-11T15:48:34.206Z,4.68
2023-05-11T15:51:01.260Z,4.18
2023-05-11T15:53:28.639Z,4.28
2023-05-11T15:55:55.802Z,5.28
2023-05-11T15:58:23.191Z,6.63
2023-05-11T16:00:50.466Z,6.55
2023-05-11T16:03:17.915Z,7.85
2023-05-11T16:05:45.490Z,6.78
2023-05-11T16:08:13.127Z,6.75
2023-05-11T16:10:40.497Z,7.00
2023-05-11T16:13:08.019Z,7.88
2023-05-11T16:15:34.691Z,6.20
2023-05-11T16:18:03.980Z,6.95
2023-05-11T16:20:31.714Z,8.50
2023-05-11T16:22:58.433Z,7.18
2023-05-11T16:25:25.217Z,10.63
2023-05-11T16:27:52.805Z,9.10
2023-05-11T16:30:25.119Z,10.07
2023-05-11T16:32:55.666Z,10.95
2023-05-11T16:35:22.443Z,10.23
2023-05-11T16:37:49.319Z,9.57
2023-05-11T16:40:21.564Z,9.98
2023-05-11T16:42:48.898Z,14.32
2023-05-11T16:45:16.592Z,10.25
2023-05-11T16:47:46.712Z,7.53
2023-05-11T16:50:14.787Z,8.43
2023-05-11T16:52:42.372Z,10.43
2023-05-11T16:55:09.693Z,8.30
2023-05-11T16:57:38.421Z,9.70
2023-05-11T17:00:06.674Z,9.38
2023-05-11T17:02:33.732Z,11.38
2023-05-11T17:05:00.743Z,8.25
2023-05-11T17:07:27.588Z,9.02
2023-05-11T17:09:57.275Z,11.00
2023-05-11T17:12:24.557Z,10.98
2023-05-11T17:14:51.690Z,11.20
2023-05-11T17:17:18.420Z,9.23
2023-05-11T17:19:45.215Z,10.05
2023-05-11T17:22:12.045Z,9.23
2023-05-11T17:24:38.782Z,11.57
2023-05-11T17:27:05.672Z,8.55
2023-05-11T17:29:32.447Z,10.18
2023-05-11T17:31:59.303Z,9.88
2023-05-11T17:34:28.525Z,10.50
2023-05-11T17:36:56.688Z,8.90
2023-05-11T17:39:23.533Z,10.05
2023-05-11T17:41:50.504Z,8.48
2023-05-11T17:44:17.287Z,9.27
2023-05-11T17:46:43.981Z,9.68
2023-05-11T17:49:10.976Z,8.80
2023-05-11T17:51:37.736Z,8.48
2023-05-11T17:54:04.464Z,6.93
2023-05-11T17:56:31.560Z,10.15
2023-05-11T17:58:58.375Z,9.43
2023-05-11T18:01:27.369Z,10.90
2023-05-11T18:03:54.531Z,8.15
2023-05-11T18:06:21.659Z,8.88
2023-05-11T18:08:48.725Z,8.77
2023-05-11T18:11:15.686Z,9.98
2023-05-11T18:13:42.799Z,9.15
2023-05-11T18:16:09.577Z,8.32
2023-05-11T18:18:36.754Z,10.50
2023-05-11T18:21:07.276Z,8.88
2023-05-11T18:23:34.557Z,11.38
2023-05-11T18:26:01.458Z,10.10
2023-05-11T18:28:28.255Z,8.23
2023-05-11T18:30:55.196Z,9.93
2023-05-11T18:33:22.246Z,10.27
2023-05-11T18:35:50.859Z,8.02
2023-05-11T18:38:18.126Z,8.40
2023-05-11T18:40:45.207Z,5.82
2023-05-11T18:43:12.258Z,8.43
2023-05-11T18:45:40.782Z,8.18
2023-05-11T18:48:07.557Z,9.27
2023-05-11T18:50:34.614Z,6.43
2023-05-11T18:53:02.094Z,6.45
2023-05-11T18:55:30.956Z,6.88
2023-05-11T18:57:57.967Z,7.30
2023-05-11T19:00:24.775Z,5.63
2023-05-11T19:02:52.019Z,8.05
2023-05-11T19:05:19.290Z,8.68
2023-05-11T19:07:46.432Z,6.45
2023-05-11T19:10:13.422Z,7.25
2023-05-11T19:12:40.358Z,6.88
2023-05-11T19:15:08.547Z,6.32
2023-05-11T19:17:35.283Z,9.52
2023-05-11T19:20:02.240Z,11.00
2023-05-11T19:22:28.958Z,8.70
2023-05-11T19:24:55.601Z,10.90
2023-05-11T19:27:22.512Z,10.48
2023-05-11T19:29:50.604Z,12.77
2023-05-11T19:32:18.900Z,15.05
2023-05-11T19:34:45.950Z,12.95
2023-05-11T19:37:12.701Z,15.27
2023-05-11T19:39:39.434Z,14.63
2023-05-11T19:42:06.404Z,15.63
2023-05-11T19:44:34.652Z,17.02
2023-05-11T19:47:01.378Z,15.52
2023-05-11T19:49:29.254Z,15.38
2023-05-11T19:51:56.023Z,15.05
2023-05-11T19:54:22.900Z,16.55
2023-05-11T19:56:49.599Z,16.88
2023-05-11T19:59:17.736Z,14.32
2023-05-11T20:01:44.586Z,16.45
2023-05-11T20:04:12.746Z,15.25
2023-05-11T20:06:39.874Z,15.57
2023-05-11T20:09:07.404Z,15.98
2023-05-11T20:11:34.010Z,14.10
2023-05-11T20:14:00.785Z,13.68
2023-05-11T20:16:30.155Z,14.93
2023-05-11T20:18:59.108Z,16.40
2023-05-11T20:21:26.243Z,15.63
2023-05-11T20:23:52.943Z,17.65
2023-05-11T20:26:19.611Z,17.90
2023-05-11T20:28:46.337Z,15.05
2023-05-11T20:31:13.011Z,17.58
2023-05-11T20:36:09.343Z,15.45
2023-05-11T20:38:36.130Z,15.27
2023-05-11T20:41:03.008Z,16.92
2023-05-11T20:43:29.773Z,17.20
2023-05-11T20:46:04.921Z,16.17
2023-05-11T20:48:40.718Z,16.73
2023-05-11T20:51:29.068Z,14.25
2023-05-11T20:53:57.658Z,15.82
2023-05-11T20:56:24.403Z,17.27
2023-05-11T21:00:03.531Z,17.70
2023-05-11T21:01:45.628Z,14.75
2023-05-11T21:04:24.611Z,15.38
2023-05-11T21:06:55.737Z,16.25
2023-05-11T21:09:22.395Z,17.83
2023-05-11T21:11:49.099Z,15.60
2023-05-11T21:14:15.927Z,16.05
2023-05-11T21:16:42.806Z,16.50
2023-05-11T21:19:09.743Z,15.25
2023-05-11T21:21:36.670Z,15.98
2023-05-11T21:24:04.081Z,16.00
2023-05-11T21:26:31.913Z,15.82
2023-05-11T21:28:58.556Z,16.17
2023-05-11T21:31:25.361Z,15.20
2023-05-11T21:33:52.360Z,14.43
2023-05-11T21:36:19.470Z,15.95
2023-05-11T21:38:46.196Z,15.23
2023-05-11T21:41:12.893Z,14.85
2023-05-11T21:43:39.573Z,16.70
2023-05-11T21:46:06.368Z,15.57
2023-05-11T21:48:33.334Z,16.15
2023-05-11T21:51:00.104Z,18.77
2023-05-11T21:53:27.147Z,16.92
2023-05-11T21:55:54.045Z,19.65
2023-05-11T21:58:20.950Z,18.00
2023-05-11T22:00:47.866Z,19.23
2023-05-11T22:03:14.615Z,21.98
2023-05-11T22:05:41.841Z,20.40
2023-05-11T22:08:14.872Z,22.40
2023-05-11T22:10:43.899Z,24.58
2023-05-11T22:13:10.707Z,20.73
2023-05-11T22:15:37.444Z,27.42
2023-05-11T22:18:04.916Z,24.50
2023-05-11T22:20:31.885Z,20.88
2023-05-11T22:22:59.159Z,23.27
2023-05-11T22:25:26.073Z,30.23
2023-05-11T22:27:52.868Z,24.15
2023-05-11T22:30:20.165Z,27.65
2023-05-11T22:32:47.268Z,31.90
2023-05-11T22:35:15.282Z,27.80
2023-05-11T22:37:43.972Z,26.10
2023-05-11T22:40:11.242Z,26.17
2023-05-11T22:42:38.042Z,24.92
2023-05-11T22:45:05.398Z,26.45
2023-05-11T22:47:32.094Z,23.77
2023-05-11T22:49:58.787Z,24.00
2023-05-11T22:52:25.466Z,19.48
2023-05-11T22:54:57.793Z,20.73
2023-05-11T22:57:26.341Z,19.25
2023-05-11T22:59:53.494Z,21.73
2023-05-11T23:02:20.940Z,21.67
2023-05-11T23:04:52.155Z,21.27
2023-05-11T23:07:19.566Z,20.52
2023-05-11T23:09:46.596Z,18.05
2023-05-11T23:12:13.608Z,18.48
2023-05-11T23:14:40.312Z,15.95
2023-05-11T23:17:07.247Z,18.52
2023-05-11T23:19:34.156Z,20.73
2023-05-11T23:22:01.094Z,17.88
2023-05-11T23:24:28.831Z,17.75
2023-05-11T23:26:55.878Z,15.57
2023-05-11T23:29:23.002Z,19.77
2023-05-11T23:31:50.950Z,18.40
2023-05-11T23:34:17.789Z,20.27
2023-05-11T23:36:44.511Z,15.35
2023-05-11T23:39:11.380Z,15.65
2023-05-11T23:41:38.621Z,17.00
2023-05-11T23:44:05.578Z,14.27
2023-05-11T23:46:32.530Z,16.27
2023-05-11T23:48:59.322Z,18.60
2023-05-11T23:51:26.133Z,15.77
2023-05-11T23:53:53.162Z,16.48
2023-05-11T23:56:19.912Z,19.60
2023-05-11T23:58:46.660Z,17.38
